地図

経路データ

SID SEASON NUMBER BASIN SUBBASIN NAME ISO_TIME NATURE LAT LON WMO_WIND WMO_PRES WMO_AGENCY TRACK_TYPE DIST2LAND LANDFALL IFLAG USA_AGENCY USA_ATCF_ID USA_LAT USA_LON USA_RECORD USA_STATUS USA_WIND USA_PRES USA_SSHS USA_R34_NE USA_R34_SE USA_R34_SW USA_R34_NW USA_R50_NE USA_R50_SE USA_R50_SW USA_R50_NW USA_R64_NE USA_R64_SE USA_R64_SW USA_R64_NW USA_POCI USA_ROCI USA_RMW USA_EYE TOKYO_LAT TOKYO_LON TOKYO_GRADE TOKYO_WIND TOKYO_PRES TOKYO_R50_DIR TOKYO_R50_LONG TOKYO_R50_SHORT TOKYO_R30_DIR TOKYO_R30_LONG TOKYO_R30_SHORT TOKYO_LAND CMA_LAT CMA_LON CMA_CAT CMA_WIND CMA_PRES HKO_LAT HKO_LON HKO_CAT HKO_WIND HKO_PRES NEWDELHI_LAT NEWDELHI_LON NEWDELHI_GRADE NEWDELHI_WIND NEWDELHI_PRES NEWDELHI_CI NEWDELHI_DP NEWDELHI_POCI REUNION_LAT REUNION_LON REUNION_TYPE REUNION_WIND REUNION_PRES REUNION_TNUM REUNION_CI REUNION_RMW REUNION_R34_NE REUNION_R34_SE REUNION_R34_SW REUNION_R34_NW REUNION_R50_NE REUNION_R50_SE REUNION_R50_SW REUNION_R50_NW REUNION_R64_NE REUNION_R64_SE REUNION_R64_SW REUNION_R64_NW BOM_LAT BOM_LON BOM_TYPE BOM_WIND BOM_PRES BOM_TNUM BOM_CI BOM_RMW BOM_R34_NE BOM_R34_SE BOM_R34_SW BOM_R34_NW BOM_R50_NE BOM_R50_SE BOM_R50_SW BOM_R50_NW BOM_R64_NE BOM_R64_SE BOM_R64_SW BOM_R64_NW BOM_ROCI BOM_POCI BOM_EYE BOM_POS_METHOD BOM_PRES_METHOD NADI_LAT NADI_LON NADI_CAT NADI_WIND NADI_PRES WELLINGTON_LAT WELLINGTON_LON WELLINGTON_WIND WELLINGTON_PRES DS824_LAT DS824_LON DS824_STAGE DS824_WIND DS824_PRES TD9636_LAT TD9636_LON TD9636_STAGE TD9636_WIND TD9636_PRES TD9635_LAT TD9635_LON TD9635_WIND TD9635_PRES TD9635_ROCI NEUMANN_LAT NEUMANN_LON NEUMANN_CLASS NEUMANN_WIND NEUMANN_PRES MLC_LAT MLC_LON MLC_CLASS MLC_WIND MLC_PRES USA_GUST BOM_GUST BOM_GUST_PER REUNION_GUST REUNION_GUST_PER USA_SEAHGT USA_SEARAD_NE USA_SEARAD_SE USA_SEARAD_SW USA_SEARAD_NW STORM_SPEED STORM_DIR
2003011N02180 2003 4 EP CP YANYAN 2003-01-11 06:00:00 TS 1.90000 180.200 main 1890 1890 O_____________ jtwc_wp WP012003 1.90000 -179.800 TD 15 1006 -1 6 270
2003011N02180 2003 4 WP MM YANYAN 2003-01-11 09:00:00 TS 1.89751 179.903 main 1904 1904 P_____________ WP012003 1.89751 179.903 TD 15 1006 -1 6 270
2003011N02180 2003 4 WP MM YANYAN 2003-01-11 12:00:00 TS 1.90000 179.600 main 1918 1918 O_____________ jtwc_wp WP012003 1.90000 179.600 TD 15 1006 -1 6 271
2003011N02180 2003 4 WP MM YANYAN 2003-01-11 15:00:00 TS 1.90750 179.293 main 1933 1933 P_____________ WP012003 1.90750 179.293 TD 15 1006 -1 6 270
2003011N02180 2003 4 WP MM YANYAN 2003-01-11 18:00:00 TS 1.90000 179.000 main 1948 1948 O_____________ jtwc_wp WP012003 1.90000 179.000 TD 15 1006 -1 6 266
2003011N02180 2003 4 WP MM YANYAN 2003-01-11 21:00:00 TS 1.86499 178.743 main 1963 1954 P_____________ WP012003 1.86499 178.743 TD 15 1006 -1 5 259
2003011N02180 2003 4 WP MM YANYAN 2003-01-12 00:00:00 TS 1.80000 178.500 main 1964 1964 O_____________ jtwc_wp WP012003 1.80000 178.500 TD 15 1006 -1 5 253
2003011N02180 2003 4 WP MM YANYAN 2003-01-12 03:00:00 TS 1.71500 178.243 main 1971 1967 P_____________ WP012003 1.71500 178.243 TD 15 1006 -1 5 248
2003011N02180 2003 4 WP MM YANYAN 2003-01-12 06:00:00 TS 1.60000 178.000 main 1973 1965 O_____________ jtwc_wp WP012003 1.60000 178.000 TD 15 1006 -1 5 236
2003011N02180 2003 4 WP MM YANYAN 2003-01-12 09:00:00 TS 1.41250 177.792 main 1965 1961 P_____________ WP012003 1.41250 177.792 TD 15 1006 -1 5 233
2003011N02180 2003 4 WP MM YANYAN 2003-01-12 12:00:00 TS 1.30000 177.600 main 1967 1967 O_____________ jtwc_wp WP012003 1.30000 177.600 TD 15 1006 -1 4 269
2003011N02180 2003 4 WP MM YANYAN 2003-01-12 15:00:00 TS 1.40500 177.400 main 1989 1989 P_____________ WP012003 1.40500 177.400 TD 15 1006 -1 5 307
2003011N02180 2003 4 WP MM YANYAN 2003-01-12 18:00:00 TS 1.60000 177.200 main 2014 2014 O_____________ jtwc_wp WP012003 1.60000 177.200 TD 15 1006 -1 5 310
2003011N02180 2003 4 WP MM YANYAN 2003-01-12 21:00:00 TS 1.73499 177.015 main 2028 2028 P_____________ WP012003 1.73499 177.015 TD 15 1006 -1 5 307
2003011N02180 2003 4 WP MM YANYAN 2003-01-13 00:00:00 TS 1.90000 176.800 main 2054 2054 O_____________ jtwc_wp WP012003 1.90000 176.800 TD 15 1006 -1 6 310
2003011N02180 2003 4 WP MM YANYAN 2003-01-13 03:00:00 TS 2.11998 176.552 main 2079 2079 P_____________ WP012003 2.11998 176.552 TD 15 1006 -1 8 310
2003011N02180 2003 4 WP MM YANYAN 2003-01-13 06:00:00 TS 2.40000 176.200 main 2089 2073 O_____________ jtwc_wp WP012003 2.40000 176.200 TD 15 1006 -1 10 306
2003011N02180 2003 4 WP MM YANYAN 2003-01-13 09:00:00 TS 2.71245 175.732 main 2065 2041 P_____________ WP012003 2.71245 175.732 TD 15 1006 -1 13 303
2003011N02180 2003 4 WP MM YANYAN 2003-01-13 12:00:00 TS 3.10000 175.100 main 2041 2012 O_____________ jtwc_wp WP012003 3.10000 175.100 TD 15 1006 -1 17 301
2003011N02180 2003 4 WP MM YANYAN 2003-01-13 15:00:00 TS 3.57749 174.310 main 2011 1979 P_____________ WP012003 3.57749 174.310 TD 17 1005 -1 20 301
2003011N02180 2003 4 WP MM YANYAN 2003-01-13 18:00:00 TS 4.10000 173.400 main 1979 1950 O_____________ jtwc_wp WP012003 4.10000 173.400 TD 20 1004 -1 21 300
2003011N02180 2003 4 WP MM YANYAN 2003-01-13 21:00:00 TS 4.62995 172.458 main 1951 1928 P_____________ WP012003 4.62995 172.458 TD 22 1003 -1 21 298
2003011N02180 2003 4 WP MM YANYAN 2003-01-14 00:00:00 TS 5.10000 171.500 main 1923 1897 O_____________ jtwc_wp WP012003 5.10000 171.500 TD 25 1002 -1 21 294
2003011N02180 2003 4 WP MM YANYAN 2003-01-14 03:00:00 TS 5.46742 170.570 main 1899 1863 P_____________ WP012003 5.46742 170.570 TD 25 1002 -1 19 289
2003011N02180 2003 4 WP MM YANYAN 2003-01-14 06:00:00 TS 5.70000 169.700 main 1863 1833 O_____________ jtwc_wp WP012003 5.70000 169.700 TD 25 1002 -1 17 282
2003011N02180 2003 4 WP MM YANYAN 2003-01-14 09:00:00 TS 5.80983 168.920 main 1827 1790 P_____________ WP012003 5.80983 168.920 TD 25 1002 -1 15 274
2003011N02180 2003 4 WP MM YANYAN 2003-01-14 12:00:00 TS 5.80000 168.200 main 1790 1746 O_____________ jtwc_wp WP012003 5.80000 168.200 TD 25 1002 -1 14 267
2003011N02180 2003 4 WP MM YANYAN 2003-01-14 15:00:00 TS 5.72244 167.477 main 1746 1704 P_____________ WP012003 5.72244 167.477 TD 25 1002 -1 14 262
2003011N02180 2003 4 WP MM YANYAN 2003-01-14 18:00:00 TS 5.60000 166.800 main 1704 1658 O_____________ jtwc_wp WP012003 5.60000 166.800 TD 25 1002 -1 13 257
2003011N02180 2003 4 WP MM YANYAN 2003-01-14 21:00:00 TS 5.43982 166.207 main 1658 1635 P_____________ WP012003 5.43982 166.207 TD 25 1002 -1 12 260
2003011N02180 2003 4 WP MM YANYAN 2003-01-15 00:00:00 TS 5.40000 165.600 main 1635 1628 O_____________ jtwc_wp WP012003 5.40000 165.600 TD 25 1002 -1 1006 120 50 13 278
2003011N02180 2003 4 WP MM YANYAN 2003-01-15 03:00:00 TS 5.63246 164.880 main 1631 1626 P_____________ WP012003 5.63246 164.880 TD 25 1003 -1 1006 120 50 16 292
2003011N02180 2003 4 WP MM YANYAN 2003-01-15 06:00:00 TS 6.00000 164.100 main 1637 1618 O_____________ jtwc_wp WP012003 6.00000 164.100 TD 25 1004 -1 1006 120 50 17 295
2003011N02180 2003 4 WP MM YANYAN 2003-01-15 09:00:00 TS 6.34988 163.315 main 1615 1615 P_____________ WP012003 6.34988 163.315 TD 25 1003 -1 1006 120 50 16 299
2003011N02180 2003 4 WP MM YANYAN 2003-01-15 12:00:00 TS 6.76667 162.700 1004 tokyo main 1625 1594 OOO___________ jtwc_wp WP012003 6.70000 162.500 TD 25 1002 -1 1006 120 50 6.90000 163.100 2 1004 0 0 0 6.90000 163.100 1 23 1004 16 299
2003011N02180 2003 4 WP MM YANYAN 2003-01-15 15:00:00 TS 7.13209 161.884 main 1594 1566 PPP___________ WP012003 7.00743 161.650 TD 27 1001 -1 1006 120 50 7.25547 162.125 2 1004 0 0 7.25805 162.110 1 23 1004 18 293
2003011N02180 2003 4 WP MM YANYAN 2003-01-15 18:00:00 TS 7.46364 161.036 1004 tokyo main 1568 1539 OOOO__________ jtwc_wp WP012003 7.30000 160.800 TD 30 1000 -1 1006 120 50 7.60000 161.200 2 1004 0 0 0 7.60000 161.200 1 23 1004 7.30000 161.000 TD 30 1002 18 292
2003011N02180 2003 4 WP MM YANYAN 2003-01-15 21:00:00 TS 7.77486 160.246 main 1541 1515 PPPP__________ WP012003 7.59989 159.977 TD 30 1000 -1 1006 120 50 7.92229 160.362 2 1003 0 0 7.91469 160.420 1 26 1004 7.55027 160.203 TD 30 1002 17 290
2003011N02180 2003 4 WP MM YANYAN 2003-01-16 00:00:00 TS 8.04000 159.480 1002 tokyo main 1515 1493 OOOO__________ jtwc_wp WP012003 7.90000 159.200 TD 30 1000 -1 1006 120 50 8.20000 159.600 2 1002 0 0 0 8.20000 159.700 1 29 1004 7.80000 159.400 TD 30 1002 16 288
2003011N02180 2003 4 WP MM YANYAN 2003-01-16 03:00:00 TS 8.27481 158.732 main 1497 1476 PPPP__________ WP012003 8.22226 158.492 TD 30 1000 -1 1006 120 47 8.38475 158.892 2 1003 0 0 8.44236 158.950 1 29 1004 8.04989 158.592 TD 30 1002 15 288
2003011N02180 2003 4 WP MM YANYAN 2003-01-16 06:00:00 TS 8.52500 158.000 1004 tokyo main 1476 1470 OOOO__________ jtwc_wp WP012003 8.50000 157.800 TD 30 1000 -1 1006 120 45 8.60000 158.200 2 1004 0 0 0 8.70000 158.200 1 29 1004 8.30000 157.800 TD 30 1002 15 290
2003011N02180 2003 4 WP MM YANYAN 2003-01-16 09:00:00 TS 8.79896 157.291 main 1470 1455 PPPP__________ WP012003 8.64985 157.065 TD 30 1000 -1 1006 120 40 8.96940 157.525 2 1004 0 0 9.02685 157.517 1 29 1004 8.54972 157.057 TD 30 1002 16 291
2003011N02180 2003 4 WP MM YANYAN 2003-01-16 12:00:00 TS 9.10000 156.500 1004 tokyo main 1460 1446 OOOO__________ jtwc_wp WP012003 8.80000 156.300 TD 30 1000 -1 1006 120 35 9.40000 156.700 2 1004 0 0 0 9.40000 156.700 1 29 1004 8.80000 156.300 TD 30 1002 19 289
2003011N02180 2003 4 WP MM YANYAN 2003-01-16 15:00:00 TS 9.42471 155.497 main 1448 1444 PPPP__________ WP012003 9.07733 155.515 TD 30 1000 -1 1006 120 40 9.79326 155.508 2 1004 0 0 9.79332 155.500 1 29 1004 9.03491 155.465 TD 30 1002 21 289
2003011N02180 2003 4 WP MM YANYAN 2003-01-16 18:00:00 TS 9.77500 154.475 1004 tokyo main 1456 1450 OOOO__________ jtwc_wp WP012003 9.40000 154.700 TD 30 1000 -1 1006 120 45 10.2000 154.300 2 1004 0 0 0 10.2000 154.300 1 29 1004 9.30000 154.600 TD 30 1002 20 291
2003011N02180 2003 4 WP MM YANYAN 2003-01-16 21:00:00 TS 10.1438 153.643 main 1465 1465 PPPP__________ WP012003 9.67740 153.850 TD 32 998 -1 1006 125 45 10.6716 153.455 2 1004 0 0 10.6065 153.512 1 29 1004 9.61974 153.757 TD 30 1002 18 295
2003011N02180 2003 4 WP MM YANYAN 2003-01-17 00:00:00 TS 10.5250 152.850 1004 tokyo main 1495 1493 OOOO__________ jtwc_wp WP012003 10.0000 153.000 TS 35 997 0 90 60 60 120 1006 130 45 11.1000 152.700 2 1004 0 0 0 11.0000 152.800 1 29 1004 10.0000 152.900 TD 30 1002 18 294
2003011N02180 2003 4 WP MM YANYAN 2003-01-17 03:00:00 TS 10.8963 151.951 main 1528 1527 PPPP__________ WP012003 10.4348 152.185 TS 35 997 0 90 60 60 120 1006 130 45 11.3500 151.799 2 1004 0 0 11.3578 151.842 1 29 1004 10.4425 151.978 TD 30 1002 19 293
2003011N02180 2003 4 WP MM YANYAN 2003-01-17 06:00:00 TS 11.2750 151.075 1004 tokyo main 1556 1550 OOOO__________ jtwc_wp WP012003 10.9000 151.400 TS 35 997 0 90 60 60 120 1006 130 45 11.6000 150.900 2 1004 0 0 0 11.7000 150.900 1 29 1004 10.9000 151.100 TD 30 1002 18 296
2003011N02180 2003 4 WP MM YANYAN 2003-01-17 09:00:00 TS 11.6860 150.289 main 1579 1576 PPPP__________ WP012003 11.3148 150.635 TS 32 999 -1 1006 125 45 12.0576 150.018 2 1003 0 0 12.0647 150.125 1 29 1003 11.3070 150.377 TD 30 1002 17 299
2003011N02180 2003 4 WP MM YANYAN 2003-01-17 12:00:00 TS 12.0750 149.600 1002 tokyo main 1609 1607 OOOO__________ jtwc_wp WP012003 11.7000 149.900 TD 30 1002 -1 1006 120 45 12.5000 149.300 2 1002 0 0 0 12.4000 149.500 1 29 1002 11.7000 149.700 TD 30 1002 15 299
2003011N02180 2003 4 WP MM YANYAN 2003-01-17 15:00:00 TS 12.3936 148.998 main 1634 1633 PPPP__________ WP012003 12.0499 149.170 TD 32 999 -1 1006 120 45 12.7445 148.890 2 1003 0 0 12.6797 149.005 1 29 1002 12.1001 148.927 TD 30 1002 13 299
2003011N02180 2003 4 WP MM YANYAN 2003-01-17 18:00:00 TS 12.6750 148.475 1004 tokyo main 1662 1661 OOOO__________ jtwc_wp WP012003 12.4000 148.500 TS 35 997 0 1006 120 45 12.9000 148.600 2 1004 0 0 0 12.9000 148.600 1 29 1002 12.5000 148.200 TD 30 1002 12 300
2003011N02180 2003 4 WP MM YANYAN 2003-01-17 21:00:00 TS 12.9611 147.976 main 1693 1692 PPPP__________ WP012003 12.8149 147.898 TS 37 995 0 1006 125 42 13.0499 148.230 2 1004 0 0 13.0573 148.207 1 29 1002 12.9224 147.568 TD 30 1002 11 301
2003011N02180 2003 4 WP MM YANYAN 2003-01-18 00:00:00 TS 13.2250 147.525 1004 tokyo main 1714 1714 OOOO__________ jtwc_wp WP012003 13.2000 147.400 TS 40 994 0 90 75 75 90 1006 130 40 13.2000 147.800 2 1004 0 0 0 13.2000 147.800 1 29 1002 13.3000 147.100 TD 30 1002 10 299
2003011N02180 2003 4 WP MM YANYAN 2003-01-18 03:00:00 TS 13.4576 147.061 main 1747 1747 PPPP__________ WP012003 13.4799 146.960 TS 42 992 0 90 75 75 90 1006 130 40 13.3853 147.205 2 1004 0 0 13.3852 147.255 1 29 1001 13.5798 146.825 TD 32 1000 9 300
2003011N02180 2003 4 WP MM YANYAN 2003-01-18 06:00:00 TS 13.6750 146.725 1004 tokyo main 1770 1770 OOOO__________ jtwc_wp WP012003 13.7000 146.700 TS 45 991 0 90 75 75 90 1006 130 40 13.6000 146.700 2 1004 0 0 0 13.6000 146.800 1 29 1000 13.8000 146.700 TS 35 998 6 314
2003011N02180 2003 4 WP MM YANYAN 2003-01-18 09:00:00 TS 13.9055 146.585 main 1792 1792 PPPP__________ WP012003 13.9224 146.652 TS 45 991 0 90 75 75 90 1006 130 40 13.8498 146.495 2 1002 0 0 13.8498 146.610 1 31 999 13.9999 146.583 TS 37 996 5 348
2003011N02180 2003 4 WP MM YANYAN 2003-01-18 12:00:00 TS 14.1250 146.625 35 1000 tokyo main 1814 1814 OOOO__________ jtwc_wp WP012003 14.1000 146.800 TS 45 991 0 90 75 75 90 1006 130 40 14.1000 146.500 3 35 1000 0 9 60 60 0 14.1000 146.600 2 34 998 14.2000 146.600 TS 40 994 5 22
2003011N02180 2003 4 WP MM YANYAN 2003-01-18 15:00:00 TS 14.3331 146.765 main 1837 1837 PPPP__________ WP012003 14.2150 147.048 TS 47 989 0 85 77 77 85 1006 130 40 14.3300 146.590 3 35 1000 0 9 60 60 14.3225 146.647 2 34 998 14.4649 146.775 TS 40 994 5 46
2003011N02180 2003 4 WP MM YANYAN 2003-01-18 18:00:00 TS 14.5000 147.025 35 1000 tokyo main 1859 1859 OOOO__________ jtwc_wp WP012003 14.3000 147.400 TS 50 987 0 80 80 80 80 1006 130 40 14.5000 146.800 3 35 1000 0 9 60 60 0 14.5000 146.800 2 34 998 14.7000 147.100 TS 40 994 6 65
2003011N02180 2003 4 WP MM YANYAN 2003-01-18 21:00:00 TS 14.5969 147.354 main 1870 1870 PPPP__________ WP012003 14.3925 147.785 TS 50 987 0 82 77 77 82 1006 130 40 14.5576 147.085 3 35 1000 0 9 70 70 14.6150 147.020 2 34 996 14.8226 147.528 TS 40 994 7 76
2003011N02180 2003 4 WP MM YANYAN 2003-01-19 00:00:00 TS 14.6750 147.725 35 1000 tokyo main 1882 1882 OOOO__________ jtwc_wp WP012003 14.5000 148.200 TS 50 987 0 85 75 75 85 1006 130 40 14.6000 147.400 3 35 1000 0 9 80 80 0 14.7000 147.300 2 34 995 14.9000 148.000 TS 40 994 7 74
2003011N02180 2003 4 WP MM YANYAN 2003-01-19 03:00:00 TS 14.7849 148.046 main 1894 1894 PPPP__________ WP012003 14.6199 148.593 TS 47 989 0 85 75 75 85 1006 130 40 14.7348 147.628 3 35 1000 0 9 100 80 14.7924 147.570 2 34 995 14.9923 148.393 TS 37 996 7 69
2003011N02180 2003 4 WP MM YANYAN 2003-01-19 06:00:00 TS 14.9250 148.400 35 1000 tokyo main 1907 1907 OOOO__________ jtwc_wp WP012003 14.8000 149.000 TS 45 991 0 85 75 75 85 1006 130 40 14.9000 147.900 3 35 1000 0 1 120 80 0 14.9000 147.900 2 34 995 15.1000 148.800 TS 35 998 8 68
2003011N02180 2003 4 WP MM YANYAN 2003-01-19 09:00:00 TS 15.0937 148.829 main 1933 1933 PPPP__________ WP012003 15.0699 149.435 TS 42 992 0 85 75 75 85 1006 130 40 15.0424 148.298 3 35 1000 0 1 135 65 15.0349 148.305 2 34 995 15.2274 149.278 TS 35 998 10 67
2003011N02180 2003 4 WP MM YANYAN 2003-01-19 12:00:00 TS 15.3000 149.325 35 1000 tokyo main 1960 1960 OOOO__________ jtwc_wp WP012003 15.4000 149.900 TS 40 994 0 85 75 75 85 1006 130 40 15.2000 148.800 3 35 1000 0 1 150 50 0 15.2000 148.800 2 34 995 15.4000 149.800 TS 35 998 11 66
2003011N02180 2003 4 WP MM YANYAN 2003-01-19 15:00:00 TS 15.5349 149.865 main 1990 1990 PPPP__________ WP012003 15.7499 150.385 TS 40 994 0 85 75 75 85 1006 130 40 15.3774 149.370 3 35 1000 0 1 150 40 15.3774 149.370 2 34 995 15.6349 150.335 TS 35 998 12 65
2003011N02180 2003 4 WP MM YANYAN 2003-01-19 18:00:00 TS 15.8000 150.450 35 1000 tokyo main 2034 2034 OOOO__________ jtwc_wp WP012003 16.1000 150.900 TS 40 994 0 85 75 75 85 1006 130 40 15.6000 150.000 3 35 1000 0 1 150 30 0 15.6000 150.000 2 34 995 15.9000 150.900 TS 35 998 13 64
2003011N02180 2003 4 WP MM YANYAN 2003-01-19 21:00:00 TS 16.0818 151.055 main 2078 2078 PPPP__________ WP012003 16.4147 151.420 TS 40 994 0 85 65 65 70 1006 125 40 15.8850 150.657 3 35 1000 0 1 150 30 15.8850 150.657 2 34 995 16.1423 151.485 TS 35 998 13 64
2003011N02180 2003 4 WP MM YANYAN 2003-01-20 00:00:00 TS 16.3750 151.675 35 1000 tokyo main 2125 2125 OOOO__________ jtwc_wp WP012003 16.7000 152.000 TS 40 994 0 85 55 55 55 1006 120 40 16.2000 151.300 3 35 1000 0 1 150 30 0 16.2000 151.300 2 34 995 16.4000 152.100 TS 35 998 13 63
2003011N02180 2003 4 WP MM YANYAN 2003-01-20 03:00:00 TS 16.6735 152.280 main 2173 2173 PPPP__________ WP012003 16.9650 152.678 TS 37 995 0 85 55 55 55 1006 120 40 16.5146 151.850 3 35 1000 0 1 125 25 16.5146 151.850 2 34 995 16.6999 152.743 TS 35 998 13 63
2003011N02180 2003 4 WP MM YANYAN 2003-01-20 06:00:00 TS 16.9467 152.867 35 1000 tokyo main 2206 2206 OOOO__________ jtwc_wp WP012003 17.2000 153.400 TS 35 997 0 85 55 55 55 1006 120 40 16.8000 152.400 3 35 1000 0 1 100 20 0 16.8000 152.400 2 34 995 17.0000 153.400 TS 35 998 13 67
2003011N02180 2003 4 WP MM YANYAN 2003-01-20 09:00:00 TS 17.1690 153.495 main 2247 2247 PPPP__________ WP012003 17.4075 154.123 TS 35 997 0 85 55 55 55 1006 120 40 17.0300 153.043 3 35 1000 0 1 80 17.0225 153.043 2 34 995 17.2629 154.052 TS 32 1000 13 71
2003011N02180 2003 4 WP MM YANYAN 2003-01-20 12:00:00 TS 17.3462 154.115 35 1000 tokyo main 2267 2267 OOOO__________ jtwc_wp WP012003 17.6000 154.800 TS 35 997 0 85 55 55 55 1006 120 40 17.2000 153.700 3 35 1000 0 1 60 0 17.2000 153.700 2 34 995 17.5000 154.700 TD 30 1002 12 74
2003011N02180 2003 4 WP MM YANYAN 2003-01-20 15:00:00 TS 17.4857 154.680 main 2300 2300 PPP___________ WP012003 17.8150 155.425 TS 32 998 -1 17.2923 154.308 3 1002 0 1 17.3498 154.308 2 31 997 TD 11 75
2003011N02180 2003 4 WP MM YANYAN 2003-01-20 18:00:00 TS 17.6333 155.233 1004 tokyo main 2322 2322 OOO___________ jtwc_wp WP012003 18.0000 155.900 TD 30 1000 -1 17.4000 154.900 2 1004 0 0 0 17.5000 154.900 1 29 1000 11 74
2003011N02180 2003 4 WP MM YANYAN 2003-01-20 21:00:00 TS 17.7867 155.753 main 2358 2358 PPP___________ WP012003 18.1147 156.160 TD 27 1001 -1 17.6053 155.575 2 1004 0 0 17.6400 155.523 1 26 1002 10 67
2003011N02180 2003 4 WP MM YANYAN 2003-01-21 00:00:00 TS 18.0200 156.180 1004 tokyo main 2390 2390 OOO___________ jtwc_wp WP012003 18.2000 156.300 TD 25 1002 -1 1007 120 20 17.9000 156.100 2 1004 0 0 0 17.9000 156.100 1 23 1004 9 51
2003011N02180 2003 4 WP MM YANYAN 2003-01-21 03:00:00 TS 18.3187 156.449 main 2428 2428 PPP___________ WP012003 18.3075 156.458 TD 22 1003 -1 18.2772 156.300 2 1004 0 0 18.3826 156.579 1 21 1005 7 37
2003011N02180 2003 4 WP MM YANYAN 2003-01-21 06:00:00 MX 18.5800 156.620 1004 tokyo main 2444 2444 OOO___________ jtwc_wp WP012003 18.4000 156.600 TD 20 1004 -1 18.7000 156.300 6 1004 0 0 0 19.0000 157.000 0 19 1006 3 63
2003011N02180 2003 4 WP MM YANYAN 2003-01-21 09:00:00 TS 18.4600 156.747 main 2458 2450 P_____________ WP012003 18.4600 156.747 TD 20 1004 -1 6 0 0 0 3 107
2003011N02180 2003 4 WP MM YANYAN 2003-01-21 12:00:00 TS 18.5000 156.900 main 2463 O_____________ jtwc_wp WP012003 18.5000 156.900 TD 20 1004 -1 3 74

IBTrACS Databaseについて

本データベースは、米国NOAAが公開する1842年以降の世界の熱帯低気圧のベストトラックデータアーカイブInternational Best Track Archive for Climate Stewardship (IBTrACS)を、ウェブで閲覧しやすい形式に変換したものです。

最終更新日:2021-10-19